Time;durP1;ratioP1;P1;durP2;ratioP2;P2;SDS_P1;SDS_P2;PMS_P1;PMS_P2;Temp;Humidity;BMP_temperature;BMP_pressure;BME280_temperature;BME280_humidity;BME280_pressure;Samples;Min_cycle;Max_cycle;Signal;HPM_P1;HPM_P2
2021/01/15 00:01:17;;;;;;;1.55;0.85;;;26.40;56.90;;;;;;5025693;28;20017;-69
2021/01/15 00:03:44;;;;;;;1.42;0.88;;;26.30;56.90;;;;;;5025073;28;20376;-68
2021/01/15 00:06:17;;;;;;;1.75;1.00;;;26.30;57.10;;;;;;5028430;28;20155;-69
2021/01/15 00:08:44;;;;;;;2.22;1.15;;;26.30;57.30;;;;;;5019950;28;20033;-68
2021/01/15 00:11:22;;;;;;;1.75;1.08;;;26.30;57.40;;;;;;5020953;28;20038;-68
2021/01/15 00:13:49;;;;;;;1.98;1.10;;;26.30;57.40;;;;;;5022269;28;20030;-68
2021/01/15 00:16:24;;;;;;;1.30;1.17;;;26.30;57.40;;;;;;5018674;28;20029;-68
2021/01/15 00:18:53;;;;;;;1.88;1.10;;;26.30;57.30;;;;;;5022975;28;20026;-68
2021/01/15 00:21:28;;;;;;;1.17;0.70;;;26.30;57.30;;;;;;5022769;28;20396;-68
2021/01/15 00:23:59;;;;;;;2.83;1.40;;;26.30;57.40;;;;;;5027984;28;20025;-68
2021/01/15 00:26:28;;;;;;;4.45;1.13;;;26.30;57.50;;;;;;5023887;28;20349;-68
2021/01/15 00:28:55;;;;;;;3.40;1.27;;;26.30;57.60;;;;;;5024770;28;20084;-68
2021/01/15 00:31:34;;;;;;;2.92;2.53;;;26.30;57.50;;;;;;5021984;28;20025;-68
2021/01/15 00:34:01;;;;;;;1.55;1.05;;;26.30;57.60;;;;;;5020316;28;20168;-68
2021/01/15 00:36:27;;;;;;;2.65;1.25;;;26.30;57.80;;;;;;5021507;28;20029;-68
2021/01/15 00:38:54;;;;;;;2.22;1.80;;;26.30;57.80;;;;;;5018820;28;20562;-68
2021/01/15 00:41:20;;;;;;;3.17;1.42;;;26.30;57.90;;;;;;5021495;28;20024;-68
2021/01/15 00:43:47;;;;;;;2.88;1.60;;;26.30;57.90;;;;;;5021454;28;20040;-68
2021/01/15 00:46:27;;;;;;;3.22;1.40;;;26.30;57.90;;;;;;5023264;28;20349;-68
2021/01/15 00:48:56;;;;;;;2.47;1.23;;;26.30;58.00;;;;;;5023876;28;20035;-67
2021/01/15 00:51:23;;;;;;;4.30;2.65;;;26.30;58.10;;;;;;5020346;28;20029;-68
2021/01/15 00:53:49;;;;;;;2.17;1.10;;;26.30;58.20;;;;;;5022781;28;20112;-68
2021/01/15 00:56:22;;;;;;;4.20;1.50;;;26.20;58.10;;;;;;5023067;28;20026;-69
2021/01/15 00:58:49;;;;;;;2.33;1.40;;;26.30;58.30;;;;;;5028934;28;20052;-68
2021/01/15 01:01:18;;;;;;;3.78;1.52;;;26.30;58.30;;;;;;5024064;28;20021;-68
2021/01/15 01:03:45;;;;;;;1.92;1.20;;;26.20;58.10;;;;;;5023198;28;20453;-68
2021/01/15 01:06:19;;;;;;;3.22;1.50;;;26.20;58.20;;;;;;5026760;28;20049;-69
2021/01/15 01:08:46;;;;;;;3.20;1.20;;;26.20;58.20;;;;;;5028577;28;20025;-72
2021/01/15 01:11:14;;;;;;;1.85;1.23;;;26.20;58.40;;;;;;5027533;28;20022;-69
2021/01/15 01:13:41;;;;;;;1.70;1.25;;;26.20;58.50;;;;;;5029645;28;20017;-69
2021/01/15 01:16:07;;;;;;;2.13;1.20;;;26.20;58.50;;;;;;5034074;28;20053;-68
2021/01/15 01:18:35;;;;;;;1.20;1.10;;;26.20;58.50;;;;;;5027597;28;20031;-68
2021/01/15 01:21:03;;;;;;;2.17;1.38;;;26.20;58.50;;;;;;5024597;28;20077;-68
2021/01/15 01:23:29;;;;;;;1.40;1.13;;;26.10;58.50;;;;;;5023209;28;20104;-70
2021/01/15 01:25:56;;;;;;;3.13;1.60;;;26.10;58.50;;;;;;5023635;28;20018;-68
2021/01/15 01:28:22;;;;;;;2.53;1.15;;;26.10;58.60;;;;;;5027778;28;20108;-69
2021/01/15 01:30:49;;;;;;;3.17;2.03;;;26.10;58.70;;;;;;5026369;28;20116;-68
2021/01/15 01:33:16;;;;;;;1.83;1.10;;;26.10;58.70;;;;;;5028466;28;20032;-69
2021/01/15 01:35:42;;;;;;;4.13;1.67;;;26.10;58.80;;;;;;5024056;28;20100;-69
2021/01/15 01:38:09;;;;;;;1.90;1.15;;;26.10;58.90;;;;;;5029705;28;20464;-73
2021/01/15 01:40:35;;;;;;;1.80;0.95;;;26.10;58.90;;;;;;5029827;28;20024;-69
2021/01/15 01:43:02;;;;;;;1.73;1.33;;;26.10;59.00;;;;;;5024418;28;20565;-68
2021/01/15 01:45:29;;;;;;;1.25;1.10;;;26.10;59.30;;;;;;5027213;28;20014;-68
2021/01/15 01:47:57;;;;;;;2.20;1.27;;;26.10;59.40;;;;;;5032086;28;20034;-68
2021/01/15 01:50:25;;;;;;;1.35;1.00;;;26.10;59.60;;;;;;5026954;28;20037;-68
2021/01/15 01:52:52;;;;;;;2.85;1.42;;;26.10;59.70;;;;;;5025743;28;20018;-69
2021/01/15 01:55:19;;;;;;;1.00;0.90;;;26.00;59.90;;;;;;5028715;28;20014;-71
2021/01/15 01:57:46;;;;;;;1.42;1.23;;;26.00;60.30;;;;;;5028539;28;20022;-69
2021/01/15 02:00:13;;;;;;;2.10;1.30;;;26.00;60.80;;;;;;5028691;28;20022;-68
2021/01/15 02:02:40;;;;;;;1.50;1.23;;;26.00;61.10;;;;;;5027500;28;20048;-68
2021/01/15 02:05:07;;;;;;;1.35;1.02;;;26.00;61.10;;;;;;5021552;28;20021;-68
2021/01/15 04:56:55;;;;;;;1.77;1.33;;;25.40;66.60;;;;;;6158781;23;20021;-73
2021/01/15 04:59:23;;;;;;;1.45;1.30;;;25.40;66.60;;;;;;6154028;23;20012;-74
2021/01/15 05:01:50;;;;;;;1.13;1.00;;;25.40;66.60;;;;;;6159082;23;20001;-74
2021/01/15 05:04:18;;;;;;;3.53;1.42;;;25.30;66.60;;;;;;6159773;23;19998;-72
2021/01/15 05:06:49;;;;;;;2.00;1.23;;;25.30;66.70;;;;;;6158489;23;20001;-69
2021/01/15 05:09:18;;;;;;;5.53;1.60;;;25.40;66.90;;;;;;6159964;23;20005;-74
2021/01/15 05:11:45;;;;;;;2.90;1.20;;;25.30;66.90;;;;;;6159388;23;20017;-74
2021/01/15 05:14:14;;;;;;;4.90;1.20;;;25.30;67.20;;;;;;6158994;23;20425;-74
2021/01/15 05:16:43;;;;;;;4.63;1.27;;;25.30;67.30;;;;;;6159753;23;19997;-73
2021/01/15 05:19:11;;;;;;;8.43;1.83;;;25.40;67.70;;;;;;6158745;23;19997;-75
2021/01/15 05:21:39;;;;;;;9.95;2.05;;;25.30;67.60;;;;;;6159967;23;20005;-74
2021/01/15 05:24:10;;;;;;;8.30;1.50;;;25.30;67.70;;;;;;6154125;23;20012;-75
2021/01/15 05:26:40;;;;;;;4.75;1.60;;;25.40;67.90;;;;;;6152868;23;20144;-73
2021/01/15 05:29:08;;;;;;;3.83;1.58;;;25.40;68.00;;;;;;6152591;23;20021;-74
2021/01/15 05:31:56;;;;;;;3.15;1.58;;;25.30;68.20;;;;;;6151916;23;20264;-73
2021/01/15 05:34:29;;;;;;;4.20;2.08;;;25.40;68.50;;;;;;6152907;23;20422;-72
2021/01/15 05:36:56;;;;;;;3.13;1.30;;;25.30;68.60;;;;;;6149700;23;20463;-74
2021/01/15 05:39:30;;;;;;;6.13;1.52;;;25.30;68.70;;;;;;6153567;23;20001;-75
2021/01/15 05:42:01;;;;;;;5.80;1.60;;;25.30;68.90;;;;;;6152176;23;20006;-74
2021/01/15 05:44:29;;;;;;;4.07;1.52;;;25.30;68.90;;;;;;6152178;23;20003;-74
2021/01/15 05:47:00;;;;;;;7.55;1.58;;;25.30;69.10;;;;;;6152801;23;20005;-74
2021/01/15 05:49:28;;;;;;;3.88;1.67;;;25.30;69.10;;;;;;6151432;23;19998;-73
2021/01/15 05:52:05;;;;;;;2.85;1.35;;;25.30;69.20;;;;;;6152786;23;20097;-70
2021/01/15 05:54:33;;;;;;;3.83;1.92;;;25.30;69.30;;;;;;6151756;23;20024;-72
2021/01/15 05:57:01;;;;;;;7.28;2.05;;;25.30;69.30;;;;;;6152759;23;20013;-71
2021/01/15 05:59:28;;;;;;;3.60;1.58;;;25.30;69.40;;;;;;6151943;23;20001;-70
2021/01/15 06:01:59;;;;;;;2.13;1.23;;;25.30;69.60;;;;;;6152091;23;20384;-70
2021/01/15 06:04:31;;;;;;;2.28;1.30;;;25.30;69.80;;;;;;6150897;23;20049;-71
2021/01/15 06:07:20;;;;;;;4.38;2.10;;;25.30;70.00;;;;;;6174564;23;20006;-72
2021/01/15 06:09:52;;;;;;;2.05;1.38;;;25.30;70.20;;;;;;6150998;23;20005;-74
2021/01/15 06:12:20;;;;;;;5.35;2.25;;;25.30;70.50;;;;;;6149990;23;20436;-71
2021/01/15 06:14:57;;;;;;;2.70;1.50;;;25.30;70.70;;;;;;6152897;23;19997;-73
2021/01/15 06:17:28;;;;;;;6.03;1.67;;;25.30;70.80;;;;;;6150613;23;20005;-72
2021/01/15 06:20:02;;;;;;;2.13;1.73;;;25.30;70.80;;;;;;6150197;23;20002;-73
2021/01/15 06:22:46;;;;;;;1.73;1.60;;;25.30;70.80;;;;;;6150614;23;20348;-74
2021/01/15 06:25:17;;;;;;;1.48;1.38;;;25.30;70.80;;;;;;6150462;23;20012;-72
2021/01/15 06:27:48;;;;;;;1.02;0.98;;;25.30;71.00;;;;;;6152683;23;20121;-71
2021/01/15 06:30:20;;;;;;;3.63;1.40;;;25.30;71.20;;;;;;6149152;23;20466;-75
2021/01/15 06:32:54;;;;;;;4.43;1.50;;;25.30;71.30;;;;;;6152482;23;20009;-70
2021/01/15 06:35:31;;;;;;;1.60;1.10;;;25.30;71.30;;;;;;6149482;23;20056;-70
2021/01/15 06:37:59;;;;;;;2.55;1.42;;;25.30;71.40;;;;;;6149686;23;20240;-73
2021/01/15 06:40:36;;;;;;;1.33;1.00;;;25.30;71.60;;;;;;6152595;23;20001;-73
2021/01/15 06:43:10;;;;;;;1.67;1.15;;;25.30;71.80;;;;;;6151263;23;20322;-72
2021/01/15 06:45:46;;;;;;;1.95;0.73;;;25.30;72.00;;;;;;6152197;23;20002;-70
2021/01/15 06:48:32;;;;;;;1.27;1.17;;;25.30;72.10;;;;;;6150832;23;20012;-69
2021/01/15 06:50:59;;;;;;;0.95;0.63;;;25.30;72.20;;;;;;6151743;23;20008;-73
2021/01/15 06:53:31;;;;;;;1.17;0.75;;;25.20;72.20;;;;;;6151758;23;20056;-69
2021/01/15 06:56:02;;;;;;;0.68;0.52;;;25.30;72.40;;;;;;6151084;23;20425;-69
2021/01/15 06:58:31;;;;;;;1.88;0.52;;;25.30;72.40;;;;;;6152173;23;20068;-70
2021/01/15 07:01:17;;;;;;;0.75;0.70;;;25.20;72.50;;;;;;6150945;23;20003;-70
2021/01/15 07:04:02;;;;;;;1.25;0.50;;;25.20;72.60;;;;;;6151531;23;20009;-73
2021/01/15 07:06:30;;;;;;;0.35;0.35;;;25.20;72.60;;;;;;6151966;23;20072;-72
2021/01/15 07:08:59;;;;;;;1.23;0.85;;;25.20;72.70;;;;;;6150759;23;20421;-71
2021/01/15 07:11:28;;;;;;;0.65;0.50;;;25.20;72.80;;;;;;6152139;23;20007;-70
2021/01/15 07:13:56;;;;;;;1.60;0.50;;;25.20;72.90;;;;;;6150616;23;20008;-70
2021/01/15 07:16:32;;;;;;;1.02;0.43;;;25.20;73.00;;;;;;6152084;23;20052;-71
2021/01/15 07:19:10;;;;;;;0.70;0.50;;;25.20;73.10;;;;;;6151041;23;20081;-70
2021/01/15 07:21:43;;;;;;;0.60;0.30;;;25.20;73.20;;;;;;6151153;23;20033;-69
2021/01/15 07:24:13;;;;;;;2.00;0.40;;;25.20;73.30;;;;;;6151682;23;20004;-69
2021/01/15 07:26:39;;;;;;;0.40;0.40;;;25.20;73.30;;;;;;6150848;23;19993;-70
2021/01/15 07:29:09;;;;;;;0.32;0.32;;;25.20;74.00;;;;;;6151785;23;20005;-69
2021/01/15 07:31:50;;;;;;;0.22;0.22;;;25.10;73.30;;;;;;6150354;23;20014;-69
2021/01/15 07:34:18;;;;;;;0.82;0.32;;;25.20;73.50;;;;;;6151595;23;20337;-69
2021/01/15 07:36:45;;;;;;;0.25;0.20;;;25.20;73.60;;;;;;6152105;23;20006;-69
2021/01/15 07:39:14;;;;;;;1.13;0.40;;;25.10;73.50;;;;;;6150464;23;19997;-70
2021/01/15 07:41:48;;;;;;;0.55;0.30;;;25.10;73.50;;;;;;6152321;23;20001;-69
2021/01/15 07:44:23;;;;;;;0.90;0.70;;;25.10;74.30;;;;;;6148985;23;20160;-69
2021/01/15 07:46:55;;;;;;;1.38;0.80;;;25.10;73.70;;;;;;6151451;23;20085;-69
2021/01/15 07:49:25;;;;;;;1.80;0.90;;;25.10;73.70;;;;;;6151612;23;20002;-69
2021/01/15 07:52:04;;;;;;;1.27;0.75;;;25.10;73.70;;;;;;6150802;23;20092;-68
2021/01/15 07:55:19;;;;;;;1.08;0.60;;;25.10;73.60;;;;;;6151988;23;20449;-69
2021/01/15 07:57:38;;;;;;;3.17;1.00;;;25.10;73.60;;;;;;6147804;23;20440;-69
2021/01/15 08:00:24;;;;;;;0.50;0.50;;;25.10;73.50;;;;;;6151975;23;20009;-69
2021/01/15 08:03:00;;;;;;;1.08;0.70;;;25.10;73.40;;;;;;6151594;23;20009;-69
2021/01/15 08:05:27;;;;;;;1.50;0.90;;;25.00;73.20;;;;;;6150017;23;20023;-70
2021/01/15 08:08:11;;;;;;;1.02;0.93;;;25.00;73.10;;;;;;6152240;23;20002;-69
2021/01/15 08:10:46;;;;;;;0.77;0.77;;;25.00;73.00;;;;;;6150719;23;20084;-68
2021/01/15 08:13:17;;;;;;;0.90;0.75;;;25.00;72.80;;;;;;6151773;23;20092;-69
2021/01/15 08:15:44;;;;;;;1.38;0.60;;;25.00;72.60;;;;;;6150786;23;20054;-69
2021/01/15 08:18:10;;;;;;;1.58;0.60;;;25.00;72.60;;;;;;6151066;23;20006;-68
2021/01/15 08:20:37;;;;;;;2.13;1.10;;;25.00;72.60;;;;;;6150136;23;20036;-70
2021/01/15 08:23:04;;;;;;;2.67;1.25;;;25.00;72.50;;;;;;6150592;23;20009;-69
2021/01/15 08:25:31;;;;;;;3.17;1.30;;;25.00;72.50;;;;;;6151789;23;20009;-69
2021/01/15 08:27:58;;;;;;;1.60;0.80;;;25.00;72.50;;;;;;6150423;23;20476;-71
2021/01/15 08:30:26;;;;;;;3.20;1.00;;;25.00;72.40;;;;;;6151644;23;19997;-69
2021/01/15 08:32:52;;;;;;;2.58;0.77;;;24.90;73.00;;;;;;6150844;23;20433;-69
2021/01/15 08:35:25;;;;;;;1.73;1.00;;;24.90;72.40;;;;;;6150640;23;20036;-69
2021/01/15 08:37:59;;;;;;;3.13;1.30;;;24.90;72.40;;;;;;6151682;23;20394;-69
2021/01/15 08:40:29;;;;;;;1.70;0.82;;;24.90;72.50;;;;;;6150335;23;20013;-69
2021/01/15 08:42:58;;;;;;;1.33;1.05;;;24.90;72.50;;;;;;6151567;23;19998;-69
2021/01/15 08:45:26;;;;;;;1.30;1.20;;;24.90;72.50;;;;;;6149714;23;20002;-70
2021/01/15 08:47:55;;;;;;;1.98;1.45;;;25.00;72.60;;;;;;6151523;23;20005;-69
2021/01/15 08:50:24;;;;;;;1.95;0.70;;;24.90;72.60;;;;;;6151112;23;20025;-70
2021/01/15 08:52:51;;;;;;;3.55;1.42;;;25.00;72.80;;;;;;6150514;23;20014;-69
2021/01/15 08:55:19;;;;;;;2.60;0.90;;;25.00;72.90;;;;;;6151840;23;20449;-68
2021/01/15 08:57:48;;;;;;;2.05;1.15;;;25.00;72.90;;;;;;6149893;23;20056;-69
2021/01/15 09:00:20;;;;;;;4.03;0.95;;;25.00;73.00;;;;;;6152745;23;20001;-69
2021/01/15 09:02:49;;;;;;;2.67;1.30;;;25.00;73.10;;;;;;6151822;23;20008;-69
2021/01/15 09:05:20;;;;;;;3.65;1.35;;;25.00;73.20;;;;;;6153636;23;20001;-68
2021/01/15 09:07:53;;;;;;;2.72;1.27;;;25.00;73.20;;;;;;6149319;23;20578;-69
2021/01/15 09:10:19;;;;;;;2.92;1.23;;;25.00;73.20;;;;;;6152163;23;20005;-69
2021/01/15 09:12:51;;;;;;;2.40;1.33;;;25.00;73.30;;;;;;6152770;23;20017;-69
2021/01/15 09:15:28;;;;;;;5.88;1.85;;;25.00;73.40;;;;;;6152131;23;20004;-69
2021/01/15 09:17:59;;;;;;;4.45;1.83;;;25.00;73.50;;;;;;6153351;23;20121;-69
2021/01/15 09:20:26;;;;;;;6.30;2.25;;;25.00;73.50;;;;;;6152888;23;20020;-69
2021/01/15 09:22:53;;;;;;;5.05;2.47;;;25.00;73.40;;;;;;6152428;23;20044;-69
2021/01/15 09:25:20;;;;;;;8.70;1.65;;;25.00;73.30;;;;;;6152706;23;19997;-69
2021/01/15 09:27:47;;;;;;;5.43;2.08;;;24.90;73.10;;;;;;6151689;23;20009;-69
2021/01/15 09:30:15;;;;;;;6.07;2.45;;;24.90;73.10;;;;;;6153451;23;20519;-69
2021/01/15 09:32:46;;;;;;;6.78;1.88;;;24.90;73.00;;;;;;6151459;23;20044;-70
2021/01/15 09:35:16;;;;;;;9.70;2.05;;;24.90;73.00;;;;;;6152902;23;20548;-71
2021/01/15 09:37:43;;;;;;;7.05;2.03;;;24.90;73.00;;;;;;6151642;23;20002;-70
2021/01/15 09:40:10;;;;;;;6.90;1.60;;;24.90;73.00;;;;;;6153070;23;20002;-70
2021/01/15 09:42:36;;;;;;;7.25;2.00;;;24.90;72.90;;;;;;6152439;23;20002;-69
2021/01/15 09:45:04;;;;;;;4.13;1.65;;;24.90;72.80;;;;;;6151594;23;20076;-70
2021/01/15 09:47:31;;;;;;;5.07;1.45;;;24.90;72.60;;;;;;6153289;23;19998;-69
2021/01/15 09:49:58;;;;;;;6.43;1.60;;;24.90;72.40;;;;;;6151812;23;20005;-69
2021/01/15 09:52:24;;;;;;;7.30;2.35;;;24.90;72.40;;;;;;6152624;23;20013;-70
2021/01/15 09:54:51;;;;;;;7.22;2.38;;;24.90;72.30;;;;;;6151723;23;20014;-69
2021/01/15 09:57:17;;;;;;;8.23;2.38;;;24.90;72.30;;;;;;6152467;23;20002;-70
2021/01/15 09:59:44;;;;;;;6.50;2.47;;;24.90;72.30;;;;;;6152185;23;20427;-70
2021/01/15 10:02:10;;;;;;;7.95;2.25;;;24.90;72.20;;;;;;6152126;23;20001;-70
2021/01/15 10:05:16;;;;;;;7.60;2.90;;;24.90;72.10;;;;;;6152654;23;20011;-69
2021/01/15 10:08:02;;;;;;;;;;;25.00;72.00;;;;;;6145959;23;20044;-69
2021/01/15 10:10:45;;;;;;;6.60;1.77;;;25.00;71.90;;;;;;6151559;23;20332;-69
2021/01/15 10:13:12;;;;;;;7.78;2.30;;;25.00;71.70;;;;;;6151833;23;20018;-69
2021/01/15 10:15:38;;;;;;;9.00;4.95;;;25.00;71.50;;;;;;6151024;23;20020;-69
2021/01/15 10:18:05;;;;;;;7.68;3.42;;;25.10;71.40;;;;;;6151758;23;20392;-68
2021/01/15 10:20:31;;;;;;;7.75;3.20;;;25.10;71.20;;;;;;6149662;23;20079;-69
2021/01/15 10:22:58;;;;;;;7.97;2.55;;;25.10;71.00;;;;;;6151689;23;20001;-69
2021/01/15 10:25:24;;;;;;;6.47;3.20;;;25.10;71.50;;;;;;6150661;23;20012;-69
2021/01/15 10:27:51;;;;;;;12.40;2.28;;;25.20;70.80;;;;;;6151156;23;20006;-69
2021/01/15 10:30:18;;;;;;;8.40;2.33;;;25.20;70.70;;;;;;6151453;23;20089;-69
2021/01/15 10:32:47;;;;;;;9.63;2.03;;;25.30;70.60;;;;;;6150911;23;20060;-68
2021/01/15 10:35:14;;;;;;;19.27;14.45;;;25.30;70.40;;;;;;6152370;23;20005;-68
2021/01/15 10:37:41;;;;;;;11.00;9.05;;;25.40;70.30;;;;;;6151308;23;20068;-70
2021/01/15 10:40:08;;;;;;;12.68;5.57;;;25.40;70.20;;;;;;6152262;23;20020;-70
2021/01/15 10:42:39;;;;;;;10.13;3.42;;;25.40;70.10;;;;;;6151529;23;20080;-70
2021/01/15 10:45:06;;;;;;;4.88;2.38;;;25.40;69.80;;;;;;6151697;23;20029;-70
2021/01/15 10:47:33;;;;;;;9.85;2.55;;;25.40;70.30;;;;;;6152089;23;20002;-70
2021/01/15 10:50:00;;;;;;;5.68;2.05;;;25.50;69.50;;;;;;6151565;23;20028;-70
2021/01/15 10:52:26;;;;;;;9.18;1.98;;;25.50;69.30;;;;;;6152140;23;20005;-70
2021/01/15 10:54:53;;;;;;;9.75;2.28;;;25.60;69.10;;;;;;6150999;23;20024;-70
2021/01/15 10:57:19;;;;;;;9.68;2.88;;;25.60;68.80;;;;;;6151649;23;20064;-70
2021/01/15 10:59:46;;;;;;;6.28;2.30;;;25.60;68.50;;;;;;6151023;23;20038;-71
2021/01/15 11:02:12;;;;;;;6.00;1.52;;;25.60;68.10;;;;;;6152081;23;20012;-70
2021/01/15 11:04:39;;;;;;;11.48;3.00;;;25.70;67.80;;;;;;6151959;23;20002;-70
2021/01/15 11:07:05;;;;;;;7.57;2.22;;;25.70;67.50;;;;;;6151576;23;20005;-71
2021/01/15 11:09:32;;;;;;;8.30;1.75;;;25.70;67.40;;;;;;6150511;23;20005;-70
2021/01/15 11:11:59;;;;;;;8.00;2.20;;;25.80;67.20;;;;;;6150754;23;20369;-70
2021/01/15 11:14:26;;;;;;;5.97;2.20;;;25.80;67.00;;;;;;6151745;23;20020;-70
2021/01/15 11:16:54;;;;;;;6.18;1.70;;;25.80;66.90;;;;;;6150916;23;19997;-71
2021/01/15 11:19:21;;;;;;;10.18;3.05;;;25.80;66.90;;;;;;6151809;23;20345;-71
2021/01/15 11:21:50;;;;;;;9.38;1.95;;;25.90;66.90;;;;;;6151008;23;20013;-70
2021/01/15 11:24:17;;;;;;;5.88;2.28;;;25.90;66.80;;;;;;6149435;23;20034;-71
2021/01/15 11:26:43;;;;;;;7.32;2.90;;;25.90;66.70;;;;;;6152070;23;19998;-71
2021/01/15 11:29:11;;;;;;;7.22;2.15;;;25.90;66.50;;;;;;6150586;23;20006;-71
2021/01/15 11:31:39;;;;;;;5.22;1.95;;;26.00;66.30;;;;;;6151356;23;20013;-71
2021/01/15 11:34:06;;;;;;;7.45;2.15;;;26.10;66.00;;;;;;6150923;23;20284;-71
2021/01/15 11:36:33;;;;;;;7.82;2.42;;;26.20;65.80;;;;;;6151809;23;20048;-71
2021/01/15 11:39:09;;;;;;;12.63;2.38;;;26.30;65.40;;;;;;6150919;23;19997;-71
2021/01/15 11:41:36;;;;;;;9.68;3.05;;;26.40;65.00;;;;;;6150923;23;20001;-71
2021/01/15 11:44:05;;;;;;;5.25;2.30;;;26.50;64.60;;;;;;6152138;23;20101;-71
2021/01/15 11:46:31;;;;;;;6.65;1.90;;;26.50;64.30;;;;;;6150939;23;20413;-72
2021/01/15 11:49:01;;;;;;;8.85;1.77;;;26.60;64.00;;;;;;6151184;23;19997;-72
2021/01/15 11:51:31;;;;;;;7.32;1.77;;;26.70;64.30;;;;;;6150294;23;20060;-72
2021/01/15 11:53:58;;;;;;;8.95;2.08;;;26.70;63.10;;;;;;6151383;23;20009;-71
2021/01/15 11:56:24;;;;;;;6.20;2.38;;;26.80;62.80;;;;;;6151537;23;20006;-72
2021/01/15 11:58:51;;;;;;;6.00;2.00;;;26.80;62.40;;;;;;6151016;23;20009;-71
2021/01/15 12:01:18;;;;;;;5.55;1.77;;;26.90;62.00;;;;;;6151659;23;20321;-71
2021/01/15 12:04:24;;;;;;;6.95;1.83;;;26.90;61.70;;;;;;6150342;23;20002;-71
2021/01/15 12:06:56;;;;;;;5.20;1.52;;;27.00;61.40;;;;;;6152070;23;20319;-72
2021/01/15 12:09:24;;;;;;;7.30;1.60;;;27.00;61.10;;;;;;6150602;23;20552;-71
2021/01/15 12:11:50;;;;;;;7.82;1.77;;;27.10;60.80;;;;;;6151723;23;20037;-71
2021/01/15 12:14:17;;;;;;;7.53;2.00;;;27.10;60.60;;;;;;6151136;23;20033;-72
2021/01/15 12:16:43;;;;;;;7.40;2.17;;;27.20;60.50;;;;;;6150611;23;20002;-72
2021/01/15 12:19:10;;;;;;;5.80;3.20;;;27.20;60.20;;;;;;6151311;23;20001;-71
2021/01/15 12:21:37;;;;;;;3.92;1.60;;;27.20;59.90;;;;;;6150484;23;20006;-72
2021/01/15 12:24:04;;;;;;;7.63;2.10;;;27.20;59.70;;;;;;6151188;23;20008;-72
2021/01/15 12:26:32;;;;;;;6.97;2.30;;;27.20;59.50;;;;;;6148574;23;20400;-72
2021/01/15 12:28:59;;;;;;;7.45;1.73;;;27.30;59.30;;;;;;6151758;23;20038;-72
2021/01/15 12:31:26;;;;;;;6.65;1.45;;;27.30;59.20;;;;;;6150799;23;20006;-71
2021/01/15 12:33:52;;;;;;;5.35;1.80;;;27.30;58.90;;;;;;6151224;23;20097;-72
2021/01/15 12:36:18;;;;;;;8.05;2.45;;;27.40;58.80;;;;;;6154321;23;20309;-72
2021/01/15 12:38:45;;;;;;;5.57;2.28;;;27.40;58.70;;;;;;6151796;23;20010;-71
2021/01/15 12:41:12;;;;;;;6.68;2.45;;;27.40;59.10;;;;;;6153756;23;20033;-71
2021/01/15 12:43:40;;;;;;;4.22;1.83;;;27.50;58.30;;;;;;6150383;23;20314;-71
2021/01/15 12:46:11;;;;;;;5.65;1.63;;;27.50;57.90;;;;;;6153013;23;20012;-71
2021/01/15 12:48:38;;;;;;;7.22;2.40;;;27.50;57.90;;;;;;6152986;23;20106;-71
2021/01/15 12:51:07;;;;;;;4.97;3.25;;;27.50;57.90;;;;;;6152904;23;20005;-72
2021/01/15 12:53:34;;;;;;;8.77;2.38;;;27.60;57.90;;;;;;6152990;23;20014;-72
2021/01/15 12:56:01;;;;;;;6.50;1.48;;;27.60;57.90;;;;;;6151952;23;20014;-73
2021/01/15 12:58:28;;;;;;;5.00;2.65;;;27.60;57.80;;;;;;6152965;23;20002;-72
2021/01/15 13:00:59;;;;;;;10.60;3.85;;;27.60;57.90;;;;;;6151109;23;20052;-72
2021/01/15 13:03:26;;;;;;;4.85;2.20;;;27.60;57.90;;;;;;6152809;23;20009;-71
2021/01/15 13:05:52;;;;;;;6.68;1.63;;;27.60;57.90;;;;;;6152740;23;20029;-72
2021/01/15 13:08:19;;;;;;;7.50;1.83;;;27.60;57.80;;;;;;6152582;23;20136;-72
2021/01/15 13:10:48;;;;;;;4.30;1.60;;;27.70;57.80;;;;;;6153234;23;20501;-73
2021/01/15 13:13:15;;;;;;;5.05;1.77;;;27.70;57.60;;;;;;6151747;23;20014;-72
2021/01/15 13:15:43;;;;;;;8.73;2.05;;;27.70;57.60;;;;;;6152814;23;20002;-72
2021/01/15 13:18:09;;;;;;;6.22;2.30;;;27.70;57.50;;;;;;6152022;23;20370;-72
2021/01/15 13:20:40;;;;;;;7.45;1.70;;;27.70;57.50;;;;;;6153702;23;20004;-73
2021/01/15 13:23:11;;;;;;;6.68;2.30;;;27.70;57.40;;;;;;6152492;23;20005;-73
2021/01/15 13:25:37;;;;;;;8.77;2.33;;;27.70;57.30;;;;;;6152192;23;20056;-71
2021/01/15 13:28:08;;;;;;;5.32;1.83;;;27.80;57.30;;;;;;6153078;23;20422;-70
2021/01/15 13:30:37;;;;;;;5.63;1.67;;;27.80;57.20;;;;;;6152089;23;20001;-72
2021/01/15 13:33:44;;;;;;;6.53;1.55;;;27.80;57.10;;;;;;6169853;23;20029;-71
2021/01/15 13:36:52;;;;;;;7.20;2.10;;;27.80;57.00;;;;;;6151720;23;20417;-71
2021/01/15 13:39:59;;;;;;;9.73;2.75;;;27.70;56.90;;;;;;6151350;23;20081;-70
2021/01/15 13:42:26;;;;;;;8.88;3.50;;;27.70;56.90;;;;;;6150697;23;20001;-70
2021/01/15 13:44:53;;;;;;;16.00;4.90;;;27.70;56.80;;;;;;6151542;23;20013;-70
2021/01/15 13:47:22;;;;;;;9.82;3.35;;;27.70;56.80;;;;;;6151520;23;19994;-70
2021/01/15 13:49:49;;;;;;;9.65;2.22;;;27.70;56.70;;;;;;6151766;23;20001;-70
2021/01/15 13:52:19;;;;;;;3.08;1.77;;;27.70;56.80;;;;;;6150330;23;20014;-72
2021/01/15 13:55:05;;;;;;;7.68;3.45;;;27.80;56.80;;;;;;6152408;23;20028;-74
2021/01/15 13:58:11;;;;;;;6.53;1.50;;;27.80;56.70;;;;;;6148344;23;20017;-73
2021/01/15 14:01:17;;;;;;;4.95;1.48;;;27.80;56.80;;;;;;6149833;23;20041;-73
2021/01/15 14:03:45;;;;;;;9.30;2.03;;;27.80;56.90;;;;;;6151733;23;20005;-72
2021/01/15 14:06:11;;;;;;;5.85;1.70;;;27.80;57.00;;;;;;6150384;23;20087;-72
2021/01/15 14:08:38;;;;;;;3.85;1.25;;;27.80;57.10;;;;;;6150859;23;20002;-73
2021/01/15 14:11:04;;;;;;;12.00;3.33;;;27.80;57.20;;;;;;6152306;23;20001;-72
2021/01/15 14:13:31;;;;;;;10.30;5.78;;;27.80;57.30;;;;;;6150347;23;20013;-72
2021/01/15 14:15:58;;;;;;;13.68;8.57;;;27.70;57.30;;;;;;6151371;23;20017;-72
2021/01/15 14:18:25;;;;;;;7.20;3.90;;;27.80;57.50;;;;;;6150133;23;20029;-71
2021/01/15 14:20:52;;;;;;;16.52;4.10;;;27.80;57.60;;;;;;6152811;23;20448;-71
2021/01/15 14:23:19;;;;;;;5.90;2.10;;;27.80;57.70;;;;;;6173801;23;20028;-71
2021/01/15 14:25:46;;;;;;;6.82;2.28;;;27.80;57.60;;;;;;6152002;23;19998;-71
2021/01/15 14:28:13;;;;;;;4.53;1.73;;;27.80;57.60;;;;;;6149605;23;20010;-72
2021/01/15 14:30:39;;;;;;;2.70;1.55;;;27.80;57.70;;;;;;6151212;23;19989;-72
2021/01/15 14:33:06;;;;;;;4.18;1.73;;;27.80;57.50;;;;;;6151508;23;20020;-72
2021/01/15 14:35:33;;;;;;;10.50;2.83;;;27.70;57.50;;;;;;6149845;23;19998;-72
2021/01/15 14:38:00;;;;;;;3.90;1.90;;;27.70;57.50;;;;;;6151913;23;20025;-71
2021/01/15 14:40:27;;;;;;;7.90;2.42;;;27.70;57.40;;;;;;6149888;23;20483;-72
2021/01/15 14:42:57;;;;;;;5.50;2.00;;;27.70;57.40;;;;;;6150910;23;20002;-71
2021/01/15 14:45:23;;;;;;;5.18;2.08;;;27.70;57.30;;;;;;6148266;23;19998;-73
2021/01/15 14:47:51;;;;;;;7.18;1.73;;;27.70;57.30;;;;;;6150486;23;20056;-70
2021/01/15 14:50:18;;;;;;;5.68;1.95;;;27.70;57.30;;;;;;6150838;23;20005;-70
2021/01/15 14:52:49;;;;;;;5.97;1.73;;;27.60;57.20;;;;;;6150436;23;20009;-69
2021/01/15 14:55:16;;;;;;;6.93;2.28;;;27.60;57.10;;;;;;6150687;23;20009;-69
2021/01/15 14:58:22;;;;;;;4.65;2.78;;;27.60;57.10;;;;;;6149484;23;19997;-73
2021/01/15 15:00:49;;;;;;;6.28;1.67;;;27.70;57.00;;;;;;6149904;23;20010;-74
2021/01/15 15:03:15;;;;;;;5.03;1.60;;;27.60;56.90;;;;;;6147711;23;20731;-75
2021/01/15 15:05:42;;;;;;;6.05;2.20;;;27.60;57.00;;;;;;6149796;23;20009;-72
2021/01/15 15:08:09;;;;;;;4.75;1.48;;;27.60;57.00;;;;;;6150848;23;19998;-70
2021/01/15 15:10:37;;;;;;;4.15;1.52;;;27.60;57.00;;;;;;6148791;23;20032;-76
2021/01/15 15:13:03;;;;;;;10.00;3.30;;;27.60;57.00;;;;;;6149968;23;20016;-72
2021/01/15 15:15:30;;;;;;;6.38;1.40;;;27.60;57.00;;;;;;6149561;23;20514;-75
2021/01/15 15:17:57;;;;;;;8.70;2.80;;;27.60;57.00;;;;;;6150824;23;20006;-73
2021/01/15 15:20:23;;;;;;;3.90;1.63;;;27.60;57.10;;;;;;6150144;23;20014;-73
2021/01/15 15:22:50;;;;;;;8.05;1.70;;;27.60;57.10;;;;;;6149612;23;20008;-73
2021/01/15 15:25:17;;;;;;;5.47;1.73;;;27.50;56.90;;;;;;6150782;23;20009;-72
2021/01/15 15:27:43;;;;;;;7.38;2.65;;;27.50;56.90;;;;;;6147567;23;19997;-72
2021/01/15 15:30:11;;;;;;;7.55;4.00;;;27.60;56.90;;;;;;6150749;23;20032;-72
2021/01/15 15:32:37;;;;;;;6.60;2.70;;;27.50;56.80;;;;;;6149093;23;20036;-73
2021/01/15 15:35:05;;;;;;;6.72;1.95;;;27.50;57.00;;;;;;6150499;23;20594;-73
2021/01/15 15:37:32;;;;;;;8.07;1.88;;;27.40;56.80;;;;;;6172443;23;20445;-71
2021/01/15 15:39:58;;;;;;;6.30;2.13;;;27.40;56.90;;;;;;6150588;23;20581;-73
2021/01/15 15:42:25;;;;;;;4.13;1.58;;;27.40;56.90;;;;;;6150261;23;20010;-74
2021/01/15 15:44:51;;;;;;;4.30;1.80;;;27.40;56.90;;;;;;6148895;23;20001;-75
2021/01/15 15:47:18;;;;;;;7.68;2.10;;;27.50;56.90;;;;;;6150735;23;20002;-75
2021/01/15 15:50:24;;;;;;;5.82;1.80;;;27.40;56.80;;;;;;6148484;23;20013;-76